sensor_id;sensor_type;location;lat;lon;timestamp;P1;durP1;ratioP1;P2;durP2;ratioP2
8462;SDS011;4268;52.506;13.462;2023-11-21T00:02:01;9.47;;;8.67;;
8462;SDS011;4268;52.506;13.462;2023-11-21T00:04:27;9.60;;;8.90;;
8462;SDS011;4268;52.506;13.462;2023-11-21T00:06:52;9.93;;;9.13;;
8462;SDS011;4268;52.506;13.462;2023-11-21T00:09:19;10.03;;;9.23;;
8462;SDS011;4268;52.506;13.462;2023-11-21T00:11:45;10.67;;;9.77;;
8462;SDS011;4268;52.506;13.462;2023-11-21T00:14:10;10.47;;;9.57;;
8462;SDS011;4268;52.506;13.462;2023-11-21T00:16:36;11.17;;;10.17;;
8462;SDS011;4268;52.506;13.462;2023-11-21T00:19:02;11.93;;;10.83;;
8462;SDS011;4268;52.506;13.462;2023-11-21T00:21:27;12.03;;;10.93;;
8462;SDS011;4268;52.506;13.462;2023-11-21T00:23:53;12.03;;;10.93;;
8462;SDS011;4268;52.506;13.462;2023-11-21T00:26:18;12.60;;;11.40;;
8462;SDS011;4268;52.506;13.462;2023-11-21T00:28:44;13.57;;;12.30;;
8462;SDS011;4268;52.506;13.462;2023-11-21T00:31:10;13.67;;;12.27;;
8462;SDS011;4268;52.506;13.462;2023-11-21T00:33:36;13.83;;;12.53;;
8462;SDS011;4268;52.506;13.462;2023-11-21T00:36:01;14.50;;;13.17;;
8462;SDS011;4268;52.506;13.462;2023-11-21T00:38:27;14.23;;;12.73;;
8462;SDS011;4268;52.506;13.462;2023-11-21T00:40:52;15.77;;;14.13;;
8462;SDS011;4268;52.506;13.462;2023-11-21T00:43:21;17.23;;;15.53;;
8462;SDS011;4268;52.506;13.462;2023-11-21T00:45:47;16.13;;;14.40;;
8462;SDS011;4268;52.506;13.462;2023-11-21T00:48:14;17.03;;;15.23;;
8462;SDS011;4268;52.506;13.462;2023-11-21T00:50:39;17.47;;;15.63;;
8462;SDS011;4268;52.506;13.462;2023-11-21T00:53:05;19.07;;;17.10;;
8462;SDS011;4268;52.506;13.462;2023-11-21T00:55:32;16.87;;;15.20;;
8462;SDS011;4268;52.506;13.462;2023-11-21T00:57:58;18.57;;;15.77;;
8462;SDS011;4268;52.506;13.462;2023-11-21T01:00:24;17.20;;;15.50;;
8462;SDS011;4268;52.506;13.462;2023-11-21T01:02:50;17.90;;;16.00;;
8462;SDS011;4268;52.506;13.462;2023-11-21T01:05:16;18.13;;;15.20;;
8462;SDS011;4268;52.506;13.462;2023-11-21T01:07:41;18.43;;;16.53;;
8462;SDS011;4268;52.506;13.462;2023-11-21T01:10:07;18.43;;;15.43;;
8462;SDS011;4268;52.506;13.462;2023-11-21T01:12:36;19.50;;;16.43;;
8462;SDS011;4268;52.506;13.462;2023-11-21T01:15:03;22.37;;;17.07;;
8462;SDS011;4268;52.506;13.462;2023-11-21T01:17:32;20.43;;;16.40;;
8462;SDS011;4268;52.506;13.462;2023-11-21T01:19:59;18.67;;;16.53;;
8462;SDS011;4268;52.506;13.462;2023-11-21T01:22:25;18.80;;;16.53;;
8462;SDS011;4268;52.506;13.462;2023-11-21T01:24:51;19.00;;;16.20;;
8462;SDS011;4268;52.506;13.462;2023-11-21T01:27:18;25.30;;;18.53;;
8462;SDS011;4268;52.506;13.462;2023-11-21T01:29:43;20.60;;;17.60;;
8462;SDS011;4268;52.506;13.462;2023-11-21T01:32:09;26.77;;;19.37;;
8462;SDS011;4268;52.506;13.462;2023-11-21T01:34:35;26.53;;;19.20;;
8462;SDS011;4268;52.506;13.462;2023-11-21T01:37:01;26.87;;;20.53;;
8462;SDS011;4268;52.506;13.462;2023-11-21T01:39:29;29.67;;;22.63;;
8462;SDS011;4268;52.506;13.462;2023-11-21T01:41:56;31.50;;;21.90;;
8462;SDS011;4268;52.506;13.462;2023-11-21T01:44:23;32.67;;;23.40;;
8462;SDS011;4268;52.506;13.462;2023-11-21T01:46:51;32.43;;;23.67;;
8462;SDS011;4268;52.506;13.462;2023-11-21T01:49:17;33.80;;;22.10;;
8462;SDS011;4268;52.506;13.462;2023-11-21T01:51:47;28.97;;;20.70;;
8462;SDS011;4268;52.506;13.462;2023-11-21T01:54:14;31.20;;;22.53;;
8462;SDS011;4268;52.506;13.462;2023-11-21T01:56:42;31.23;;;21.20;;
8462;SDS011;4268;52.506;13.462;2023-11-21T01:59:10;34.23;;;21.80;;
8462;SDS011;4268;52.506;13.462;2023-11-21T02:01:39;27.30;;;19.77;;
8462;SDS011;4268;52.506;13.462;2023-11-21T02:04:06;24.73;;;18.47;;
8462;SDS011;4268;52.506;13.462;2023-11-21T02:06:33;24.37;;;17.70;;
8462;SDS011;4268;52.506;13.462;2023-11-21T02:08:59;26.33;;;17.80;;
8462;SDS011;4268;52.506;13.462;2023-11-21T02:11:25;23.90;;;16.50;;
8462;SDS011;4268;52.506;13.462;2023-11-21T02:13:52;21.87;;;16.43;;
8462;SDS011;4268;52.506;13.462;2023-11-21T02:16:19;21.97;;;16.20;;
8462;SDS011;4268;52.506;13.462;2023-11-21T02:18:45;20.57;;;14.87;;
8462;SDS011;4268;52.506;13.462;2023-11-21T02:21:13;21.77;;;15.50;;
8462;SDS011;4268;52.506;13.462;2023-11-21T02:23:39;21.37;;;15.30;;
8462;SDS011;4268;52.506;13.462;2023-11-21T02:26:09;20.27;;;14.63;;
8462;SDS011;4268;52.506;13.462;2023-11-21T02:28:35;18.03;;;13.70;;
8462;SDS011;4268;52.506;13.462;2023-11-21T02:31:01;18.13;;;14.20;;
8462;SDS011;4268;52.506;13.462;2023-11-21T02:33:27;16.50;;;13.10;;
8462;SDS011;4268;52.506;13.462;2023-11-21T02:35:53;16.87;;;13.83;;
8462;SDS011;4268;52.506;13.462;2023-11-21T02:38:20;16.53;;;13.10;;
8462;SDS011;4268;52.506;13.462;2023-11-21T02:40:46;16.67;;;13.07;;
8462;SDS011;4268;52.506;13.462;2023-11-21T02:43:12;17.17;;;13.17;;
8462;SDS011;4268;52.506;13.462;2023-11-21T02:45:37;16.77;;;13.13;;
8462;SDS011;4268;52.506;13.462;2023-11-21T02:48:03;15.93;;;12.97;;
8462;SDS011;4268;52.506;13.462;2023-11-21T02:50:29;15.63;;;11.80;;
8462;SDS011;4268;52.506;13.462;2023-11-21T02:52:55;14.33;;;11.83;;
8462;SDS011;4268;52.506;13.462;2023-11-21T02:55:22;11.93;;;10.30;;
8462;SDS011;4268;52.506;13.462;2023-11-21T02:57:49;13.90;;;11.17;;
8462;SDS011;4268;52.506;13.462;2023-11-21T03:00:15;11.73;;;10.53;;
8462;SDS011;4268;52.506;13.462;2023-11-21T03:02:41;12.40;;;11.10;;
8462;SDS011;4268;52.506;13.462;2023-11-21T03:05:08;11.77;;;10.57;;
8462;SDS011;4268;52.506;13.462;2023-11-21T03:07:34;11.70;;;10.50;;
8462;SDS011;4268;52.506;13.462;2023-11-21T03:10:00;12.23;;;10.97;;
8462;SDS011;4268;52.506;13.462;2023-11-21T03:12:25;11.23;;;10.23;;
8462;SDS011;4268;52.506;13.462;2023-11-21T03:14:51;11.53;;;10.43;;
8462;SDS011;4268;52.506;13.462;2023-11-21T03:17:16;10.87;;;9.97;;
8462;SDS011;4268;52.506;13.462;2023-11-21T03:19:42;10.33;;;9.43;;
8462;SDS011;4268;52.506;13.462;2023-11-21T03:22:07;10.37;;;9.37;;
8462;SDS011;4268;52.506;13.462;2023-11-21T03:24:33;10.13;;;9.23;;
8462;SDS011;4268;52.506;13.462;2023-11-21T03:26:59;11.20;;;10.10;;
8462;SDS011;4268;52.506;13.462;2023-11-21T03:29:25;10.07;;;9.20;;
8462;SDS011;4268;52.506;13.462;2023-11-21T03:31:51;10.10;;;9.30;;
8462;SDS011;4268;52.506;13.462;2023-11-21T03:34:22;10.03;;;9.13;;
8462;SDS011;4268;52.506;13.462;2023-11-21T03:36:50;9.60;;;8.80;;
8462;SDS011;4268;52.506;13.462;2023-11-21T03:39:16;9.70;;;8.90;;
8462;SDS011;4268;52.506;13.462;2023-11-21T03:41:41;8.10;;;7.40;;
8462;SDS011;4268;52.506;13.462;2023-11-21T03:44:07;8.33;;;7.63;;
8462;SDS011;4268;52.506;13.462;2023-11-21T03:46:32;8.43;;;7.73;;
8462;SDS011;4268;52.506;13.462;2023-11-21T03:48:58;8.67;;;7.97;;
8462;SDS011;4268;52.506;13.462;2023-11-21T03:51:23;9.03;;;8.23;;
8462;SDS011;4268;52.506;13.462;2023-11-21T03:53:49;8.87;;;8.07;;
8462;SDS011;4268;52.506;13.462;2023-11-21T03:56:14;9.37;;;8.47;;
8462;SDS011;4268;52.506;13.462;2023-11-21T03:58:40;9.40;;;8.60;;
8462;SDS011;4268;52.506;13.462;2023-11-21T04:01:06;10.07;;;9.17;;
8462;SDS011;4268;52.506;13.462;2023-11-21T04:03:31;9.10;;;8.30;;
8462;SDS011;4268;52.506;13.462;2023-11-21T04:05:57;9.30;;;8.50;;
8462;SDS011;4268;52.506;13.462;2023-11-21T04:08:22;9.23;;;8.53;;
8462;SDS011;4268;52.506;13.462;2023-11-21T04:10:48;9.20;;;8.40;;
8462;SDS011;4268;52.506;13.462;2023-11-21T04:13:13;9.00;;;8.20;;
8462;SDS011;4268;52.506;13.462;2023-11-21T04:15:39;8.50;;;7.80;;
8462;SDS011;4268;52.506;13.462;2023-11-21T04:18:04;8.90;;;8.13;;
8462;SDS011;4268;52.506;13.462;2023-11-21T04:20:30;9.03;;;8.23;;
8462;SDS011;4268;52.506;13.462;2023-11-21T04:22:56;8.70;;;8.00;;
8462;SDS011;4268;52.506;13.462;2023-11-21T04:25:21;8.70;;;8.00;;
8462;SDS011;4268;52.506;13.462;2023-11-21T04:27:48;9.00;;;8.27;;
8462;SDS011;4268;52.506;13.462;2023-11-21T04:30:14;8.80;;;8.00;;
8462;SDS011;4268;52.506;13.462;2023-11-21T04:32:40;8.40;;;7.60;;
8462;SDS011;4268;52.506;13.462;2023-11-21T04:35:06;7.50;;;6.90;;
8462;SDS011;4268;52.506;13.462;2023-11-21T04:37:33;7.50;;;6.90;;
8462;SDS011;4268;52.506;13.462;2023-11-21T04:39:59;7.40;;;6.80;;
8462;SDS011;4268;52.506;13.462;2023-11-21T04:42:24;7.37;;;6.77;;
8462;SDS011;4268;52.506;13.462;2023-11-21T04:44:50;7.57;;;6.97;;
8462;SDS011;4268;52.506;13.462;2023-11-21T04:47:17;7.47;;;6.87;;
8462;SDS011;4268;52.506;13.462;2023-11-21T04:49:45;7.27;;;6.73;;
8462;SDS011;4268;52.506;13.462;2023-11-21T04:52:12;7.50;;;6.90;;
8462;SDS011;4268;52.506;13.462;2023-11-21T04:54:37;8.30;;;7.50;;
8462;SDS011;4268;52.506;13.462;2023-11-21T04:57:04;7.87;;;7.17;;
8462;SDS011;4268;52.506;13.462;2023-11-21T04:59:32;7.43;;;6.83;;
8462;SDS011;4268;52.506;13.462;2023-11-21T05:01:58;7.20;;;6.60;;
8462;SDS011;4268;52.506;13.462;2023-11-21T05:04:25;7.00;;;6.50;;
8462;SDS011;4268;52.506;13.462;2023-11-21T05:06:50;7.53;;;6.93;;
8462;SDS011;4268;52.506;13.462;2023-11-21T05:09:16;6.23;;;5.73;;
8462;SDS011;4268;52.506;13.462;2023-11-21T05:11:42;6.97;;;6.37;;
8462;SDS011;4268;52.506;13.462;2023-11-21T05:14:08;6.47;;;5.97;;
8462;SDS011;4268;52.506;13.462;2023-11-21T05:16:34;6.87;;;6.27;;
8462;SDS011;4268;52.506;13.462;2023-11-21T05:19:00;6.50;;;5.90;;
8462;SDS011;4268;52.506;13.462;2023-11-21T05:21:26;6.67;;;6.17;;
8462;SDS011;4268;52.506;13.462;2023-11-21T05:23:52;6.90;;;6.40;;
8462;SDS011;4268;52.506;13.462;2023-11-21T05:26:18;7.67;;;7.07;;
8462;SDS011;4268;52.506;13.462;2023-11-21T05:28:44;6.80;;;6.20;;
8462;SDS011;4268;52.506;13.462;2023-11-21T05:31:09;6.73;;;6.20;;
8462;SDS011;4268;52.506;13.462;2023-11-21T05:33:35;7.40;;;6.60;;
8462;SDS011;4268;52.506;13.462;2023-11-21T05:36:01;7.07;;;6.47;;
8462;SDS011;4268;52.506;13.462;2023-11-21T05:38:27;6.90;;;6.30;;
8462;SDS011;4268;52.506;13.462;2023-11-21T05:40:52;7.17;;;6.57;;
8462;SDS011;4268;52.506;13.462;2023-11-21T05:43:19;7.23;;;6.60;;
8462;SDS011;4268;52.506;13.462;2023-11-21T05:45:45;6.67;;;6.17;;
8462;SDS011;4268;52.506;13.462;2023-11-21T05:48:10;7.70;;;7.10;;
8462;SDS011;4268;52.506;13.462;2023-11-21T05:50:36;6.40;;;5.90;;
8462;SDS011;4268;52.506;13.462;2023-11-21T05:53:02;6.40;;;5.90;;
8462;SDS011;4268;52.506;13.462;2023-11-21T05:55:28;6.70;;;6.20;;
8462;SDS011;4268;52.506;13.462;2023-11-21T05:57:53;6.47;;;5.97;;
8462;SDS011;4268;52.506;13.462;2023-11-21T06:00:19;6.73;;;6.13;;
8462;SDS011;4268;52.506;13.462;2023-11-21T06:02:47;6.80;;;6.30;;
8462;SDS011;4268;52.506;13.462;2023-11-21T06:05:19;6.67;;;6.17;;
8462;SDS011;4268;52.506;13.462;2023-11-21T06:07:48;6.50;;;6.00;;
8462;SDS011;4268;52.506;13.462;2023-11-21T06:10:14;6.80;;;6.30;;
8462;SDS011;4268;52.506;13.462;2023-11-21T06:12:40;7.10;;;6.50;;
8462;SDS011;4268;52.506;13.462;2023-11-21T06:15:08;7.53;;;6.90;;
8462;SDS011;4268;52.506;13.462;2023-11-21T06:17:35;7.70;;;7.00;;
8462;SDS011;4268;52.506;13.462;2023-11-21T06:20:04;7.60;;;6.90;;
8462;SDS011;4268;52.506;13.462;2023-11-21T06:22:34;7.90;;;7.20;;
8462;SDS011;4268;52.506;13.462;2023-11-21T06:25:03;7.20;;;6.60;;
8462;SDS011;4268;52.506;13.462;2023-11-21T06:27:31;7.50;;;6.90;;
8462;SDS011;4268;52.506;13.462;2023-11-21T06:29:57;7.93;;;7.23;;
8462;SDS011;4268;52.506;13.462;2023-11-21T06:32:23;7.53;;;6.77;;
8462;SDS011;4268;52.506;13.462;2023-11-21T06:34:49;6.43;;;5.93;;
8462;SDS011;4268;52.506;13.462;2023-11-21T06:37:14;7.83;;;7.23;;
8462;SDS011;4268;52.506;13.462;2023-11-21T06:39:40;7.07;;;6.50;;
8462;SDS011;4268;52.506;13.462;2023-11-21T06:42:06;6.93;;;6.40;;
8462;SDS011;4268;52.506;13.462;2023-11-21T06:44:32;6.97;;;6.37;;
8462;SDS011;4268;52.506;13.462;2023-11-21T06:46:58;6.83;;;6.30;;
8462;SDS011;4268;52.506;13.462;2023-11-21T06:49:24;6.77;;;6.27;;
8462;SDS011;4268;52.506;13.462;2023-11-21T06:51:49;6.90;;;6.30;;
8462;SDS011;4268;52.506;13.462;2023-11-21T06:54:15;6.60;;;6.00;;
8462;SDS011;4268;52.506;13.462;2023-11-21T06:56:40;6.87;;;6.27;;
8462;SDS011;4268;52.506;13.462;2023-11-21T06:59:06;6.93;;;6.30;;
8462;SDS011;4268;52.506;13.462;2023-11-21T07:01:32;7.00;;;6.40;;
8462;SDS011;4268;52.506;13.462;2023-11-21T07:04:03;6.37;;;5.87;;
8462;SDS011;4268;52.506;13.462;2023-11-21T07:06:30;6.47;;;5.97;;
8462;SDS011;4268;52.506;13.462;2023-11-21T07:08:55;7.07;;;6.57;;
8462;SDS011;4268;52.506;13.462;2023-11-21T07:11:22;6.30;;;5.80;;
8462;SDS011;4268;52.506;13.462;2023-11-21T07:13:47;6.77;;;6.17;;
8462;SDS011;4268;52.506;13.462;2023-11-21T07:16:13;7.23;;;6.63;;
8462;SDS011;4268;52.506;13.462;2023-11-21T07:18:40;6.47;;;5.93;;
8462;SDS011;4268;52.506;13.462;2023-11-21T07:21:05;6.50;;;6.07;;
8462;SDS011;4268;52.506;13.462;2023-11-21T07:23:31;6.93;;;6.43;;
8462;SDS011;4268;52.506;13.462;2023-11-21T07:25:57;6.10;;;5.60;;
8462;SDS011;4268;52.506;13.462;2023-11-21T07:28:22;6.47;;;5.93;;
8462;SDS011;4268;52.506;13.462;2023-11-21T07:30:50;6.40;;;5.90;;
8462;SDS011;4268;52.506;13.462;2023-11-21T07:33:16;7.10;;;6.50;;
8462;SDS011;4268;52.506;13.462;2023-11-21T07:35:42;6.80;;;6.23;;
8462;SDS011;4268;52.506;13.462;2023-11-21T07:38:08;6.90;;;6.30;;
8462;SDS011;4268;52.506;13.462;2023-11-21T07:40:33;6.60;;;6.10;;
8462;SDS011;4268;52.506;13.462;2023-11-21T07:42:59;5.80;;;5.30;;
8462;SDS011;4268;52.506;13.462;2023-11-21T07:45:25;6.67;;;6.17;;
8462;SDS011;4268;52.506;13.462;2023-11-21T07:47:52;6.90;;;6.30;;
8462;SDS011;4268;52.506;13.462;2023-11-21T07:50:19;6.77;;;6.27;;
8462;SDS011;4268;52.506;13.462;2023-11-21T07:52:45;6.13;;;5.63;;
8462;SDS011;4268;52.506;13.462;2023-11-21T07:55:11;5.93;;;5.43;;
8462;SDS011;4268;52.506;13.462;2023-11-21T07:57:36;5.70;;;5.20;;
8462;SDS011;4268;52.506;13.462;2023-11-21T08:00:03;6.63;;;6.03;;
8462;SDS011;4268;52.506;13.462;2023-11-21T08:02:31;6.40;;;5.80;;
8462;SDS011;4268;52.506;13.462;2023-11-21T08:04:57;6.37;;;5.77;;
8462;SDS011;4268;52.506;13.462;2023-11-21T08:07:22;6.53;;;5.90;;
8462;SDS011;4268;52.506;13.462;2023-11-21T08:09:48;7.00;;;6.30;;
8462;SDS011;4268;52.506;13.462;2023-11-21T08:12:15;7.43;;;6.70;;
8462;SDS011;4268;52.506;13.462;2023-11-21T08:14:40;7.83;;;6.97;;
8462;SDS011;4268;52.506;13.462;2023-11-21T08:17:06;7.50;;;6.73;;
8462;SDS011;4268;52.506;13.462;2023-11-21T08:19:31;8.20;;;7.13;;
8462;SDS011;4268;52.506;13.462;2023-11-21T08:21:58;9.67;;;7.33;;
8462;SDS011;4268;52.506;13.462;2023-11-21T08:24:24;8.37;;;7.00;;
8462;SDS011;4268;52.506;13.462;2023-11-21T08:26:49;7.57;;;6.77;;
8462;SDS011;4268;52.506;13.462;2023-11-21T08:29:17;8.50;;;7.13;;
8462;SDS011;4268;52.506;13.462;2023-11-21T08:31:43;9.27;;;7.57;;
8462;SDS011;4268;52.506;13.462;2023-11-21T08:34:11;9.50;;;8.60;;
8462;SDS011;4268;52.506;13.462;2023-11-21T08:36:41;10.33;;;7.67;;
8462;SDS011;4268;52.506;13.462;2023-11-21T08:39:07;8.83;;;7.93;;
8462;SDS011;4268;52.506;13.462;2023-11-21T08:41:34;8.57;;;7.10;;
8462;SDS011;4268;52.506;13.462;2023-11-21T08:44:00;11.03;;;7.83;;
8462;SDS011;4268;52.506;13.462;2023-11-21T08:46:25;11.57;;;7.63;;
8462;SDS011;4268;52.506;13.462;2023-11-21T08:48:51;8.70;;;7.60;;
8462;SDS011;4268;52.506;13.462;2023-11-21T08:51:17;9.17;;;7.83;;
8462;SDS011;4268;52.506;13.462;2023-11-21T08:53:43;10.10;;;8.30;;
8462;SDS011;4268;52.506;13.462;2023-11-21T08:56:17;11.43;;;8.53;;
8462;SDS011;4268;52.506;13.462;2023-11-21T08:58:44;11.53;;;8.60;;
8462;SDS011;4268;52.506;13.462;2023-11-21T09:01:11;9.03;;;7.43;;
8462;SDS011;4268;52.506;13.462;2023-11-21T09:03:37;11.17;;;9.07;;
8462;SDS011;4268;52.506;13.462;2023-11-21T09:06:03;9.73;;;8.47;;
8462;SDS011;4268;52.506;13.462;2023-11-21T09:08:29;11.13;;;8.63;;
8462;SDS011;4268;52.506;13.462;2023-11-21T09:10:55;10.70;;;8.30;;
8462;SDS011;4268;52.506;13.462;2023-11-21T09:13:21;13.50;;;8.50;;
8462;SDS011;4268;52.506;13.462;2023-11-21T09:15:46;9.50;;;7.60;;
8462;SDS011;4268;52.506;13.462;2023-11-21T09:18:13;9.63;;;7.50;;
8462;SDS011;4268;52.506;13.462;2023-11-21T09:20:38;9.90;;;7.20;;
8462;SDS011;4268;52.506;13.462;2023-11-21T09:23:04;9.27;;;7.50;;
8462;SDS011;4268;52.506;13.462;2023-11-21T09:25:29;8.37;;;7.07;;
8462;SDS011;4268;52.506;13.462;2023-11-21T09:27:55;9.60;;;8.10;;
8462;SDS011;4268;52.506;13.462;2023-11-21T09:30:22;9.97;;;7.30;;
8462;SDS011;4268;52.506;13.462;2023-11-21T09:32:49;8.60;;;6.93;;
8462;SDS011;4268;52.506;13.462;2023-11-21T09:35:15;7.50;;;6.00;;
8462;SDS011;4268;52.506;13.462;2023-11-21T09:37:43;6.87;;;6.17;;
8462;SDS011;4268;52.506;13.462;2023-11-21T09:40:12;5.63;;;5.13;;
8462;SDS011;4268;52.506;13.462;2023-11-21T09:42:39;5.50;;;5.00;;
8462;SDS011;4268;52.506;13.462;2023-11-21T09:47:42;6.03;;;4.67;;
8462;SDS011;4268;52.506;13.462;2023-11-21T09:50:09;4.60;;;4.20;;
8462;SDS011;4268;52.506;13.462;2023-11-21T09:52:55;6.43;;;5.67;;
8462;SDS011;4268;52.506;13.462;2023-11-21T09:55:41;5.37;;;4.87;;
8462;SDS011;4268;52.506;13.462;2023-11-21T09:58:09;4.00;;;3.70;;
8462;SDS011;4268;52.506;13.462;2023-11-21T10:00:38;4.10;;;3.80;;
8462;SDS011;4268;52.506;13.462;2023-11-21T10:03:06;7.50;;;6.80;;
8462;SDS011;4268;52.506;13.462;2023-11-21T10:05:32;8.27;;;7.53;;
8462;SDS011;4268;52.506;13.462;2023-11-21T10:07:59;4.47;;;4.07;;
8462;SDS011;4268;52.506;13.462;2023-11-21T10:10:25;3.73;;;3.43;;
8462;SDS011;4268;52.506;13.462;2023-11-21T10:12:54;3.50;;;3.30;;
8462;SDS011;4268;52.506;13.462;2023-11-21T10:15:22;3.20;;;3.00;;
8462;SDS011;4268;52.506;13.462;2023-11-21T10:17:51;3.50;;;3.30;;
8462;SDS011;4268;52.506;13.462;2023-11-21T10:20:18;3.30;;;3.10;;
8462;SDS011;4268;52.506;13.462;2023-11-21T10:22:44;3.50;;;3.30;;
8462;SDS011;4268;52.506;13.462;2023-11-21T10:25:11;3.70;;;3.40;;
8462;SDS011;4268;52.506;13.462;2023-11-21T10:27:39;4.00;;;3.70;;
8462;SDS011;4268;52.506;13.462;2023-11-21T10:30:06;3.80;;;3.50;;
8462;SDS011;4268;52.506;13.462;2023-11-21T10:32:41;3.90;;;3.60;;
8462;SDS011;4268;52.506;13.462;2023-11-21T10:35:08;3.80;;;3.50;;
8462;SDS011;4268;52.506;13.462;2023-11-21T10:37:38;3.90;;;3.60;;
8462;SDS011;4268;52.506;13.462;2023-11-21T10:40:08;3.97;;;3.67;;
8462;SDS011;4268;52.506;13.462;2023-11-21T10:42:37;3.90;;;3.70;;
8462;SDS011;4268;52.506;13.462;2023-11-21T10:45:04;3.90;;;3.60;;
8462;SDS011;4268;52.506;13.462;2023-11-21T10:47:37;3.83;;;3.53;;
8462;SDS011;4268;52.506;13.462;2023-11-21T10:50:04;4.63;;;4.23;;
8462;SDS011;4268;52.506;13.462;2023-11-21T10:52:30;3.80;;;3.60;;
8462;SDS011;4268;52.506;13.462;2023-11-21T10:54:56;4.00;;;3.70;;
8462;SDS011;4268;52.506;13.462;2023-11-21T10:57:24;3.80;;;3.60;;
8462;SDS011;4268;52.506;13.462;2023-11-21T10:59:50;3.97;;;3.77;;
8462;SDS011;4268;52.506;13.462;2023-11-21T11:02:23;4.30;;;3.90;;
8462;SDS011;4268;52.506;13.462;2023-11-21T11:04:57;4.33;;;4.03;;
8462;SDS011;4268;52.506;13.462;2023-11-21T11:07:26;4.43;;;4.13;;
8462;SDS011;4268;52.506;13.462;2023-11-21T11:09:55;4.40;;;4.10;;
8462;SDS011;4268;52.506;13.462;2023-11-21T11:12:20;4.60;;;4.30;;
8462;SDS011;4268;52.506;13.462;2023-11-21T11:14:47;4.70;;;4.30;;
8462;SDS011;4268;52.506;13.462;2023-11-21T11:17:13;4.57;;;4.17;;
8462;SDS011;4268;52.506;13.462;2023-11-21T11:19:39;4.60;;;4.30;;
8462;SDS011;4268;52.506;13.462;2023-11-21T11:24:46;5.60;;;5.20;;
8462;SDS011;4268;52.506;13.462;2023-11-21T11:27:37;5.07;;;4.77;;
8462;SDS011;4268;52.506;13.462;2023-11-21T11:30:47;4.83;;;4.53;;
8462;SDS011;4268;52.506;13.462;2023-11-21T11:36:17;5.20;;;4.80;;
8462;SDS011;4268;52.506;13.462;2023-11-21T11:38:56;5.00;;;4.60;;
8462;SDS011;4268;52.506;13.462;2023-11-21T11:41:24;4.63;;;4.33;;
8462;SDS011;4268;52.506;13.462;2023-11-21T11:43:52;4.87;;;4.57;;
8462;SDS011;4268;52.506;13.462;2023-11-21T11:46:18;5.30;;;4.90;;
8462;SDS011;4268;52.506;13.462;2023-11-21T11:48:46;5.30;;;4.90;;
8462;SDS011;4268;52.506;13.462;2023-11-21T11:51:13;5.07;;;4.67;;
8462;SDS011;4268;52.506;13.462;2023-11-21T11:53:42;5.03;;;4.63;;
8462;SDS011;4268;52.506;13.462;2023-11-21T11:56:28;4.80;;;4.50;;
8462;SDS011;4268;52.506;13.462;2023-11-21T11:58:59;5.00;;;4.63;;
8462;SDS011;4268;52.506;13.462;2023-11-21T12:01:27;4.70;;;4.40;;
8462;SDS011;4268;52.506;13.462;2023-11-21T12:06:48;4.70;;;4.40;;
8462;SDS011;4268;52.506;13.462;2023-11-21T12:09:18;4.60;;;4.30;;
8462;SDS011;4268;52.506;13.462;2023-11-21T12:11:46;4.40;;;4.10;;
8462;SDS011;4268;52.506;13.462;2023-11-21T12:14:15;4.77;;;4.47;;
8462;SDS011;4268;52.506;13.462;2023-11-21T12:16:42;4.80;;;4.40;;
8462;SDS011;4268;52.506;13.462;2023-11-21T12:19:11;4.80;;;4.40;;
8462;SDS011;4268;52.506;13.462;2023-11-21T12:21:37;4.40;;;4.10;;
8462;SDS011;4268;52.506;13.462;2023-11-21T12:24:03;6.43;;;4.20;;
8462;SDS011;4268;52.506;13.462;2023-11-21T12:26:29;4.63;;;4.33;;
8462;SDS011;4268;52.506;13.462;2023-11-21T12:28:54;4.60;;;4.30;;
8462;SDS011;4268;52.506;13.462;2023-11-21T12:31:23;4.30;;;4.00;;
8462;SDS011;4268;52.506;13.462;2023-11-21T12:33:48;4.20;;;3.90;;
8462;SDS011;4268;52.506;13.462;2023-11-21T12:36:15;3.83;;;3.63;;
8462;SDS011;4268;52.506;13.462;2023-11-21T12:38:41;4.23;;;3.93;;
8462;SDS011;4268;52.506;13.462;2023-11-21T12:41:07;3.90;;;3.60;;
8462;SDS011;4268;52.506;13.462;2023-11-21T12:43:35;3.83;;;3.63;;
8462;SDS011;4268;52.506;13.462;2023-11-21T12:46:05;3.90;;;3.70;;
8462;SDS011;4268;52.506;13.462;2023-11-21T12:48:38;4.10;;;3.80;;
8462;SDS011;4268;52.506;13.462;2023-11-21T12:51:07;4.07;;;3.67;;
8462;SDS011;4268;52.506;13.462;2023-11-21T12:53:32;3.93;;;3.63;;
8462;SDS011;4268;52.506;13.462;2023-11-21T12:56:06;4.40;;;4.10;;
8462;SDS011;4268;52.506;13.462;2023-11-21T12:58:38;4.33;;;4.03;;
8462;SDS011;4268;52.506;13.462;2023-11-21T13:01:05;4.37;;;4.07;;
8462;SDS011;4268;52.506;13.462;2023-11-21T13:03:37;4.47;;;4.17;;
8462;SDS011;4268;52.506;13.462;2023-11-21T13:06:03;4.20;;;3.90;;
8462;SDS011;4268;52.506;13.462;2023-11-21T13:08:30;4.40;;;4.10;;
8462;SDS011;4268;52.506;13.462;2023-11-21T13:10:57;4.57;;;4.20;;
8462;SDS011;4268;52.506;13.462;2023-11-21T13:13:25;4.17;;;3.87;;
8462;SDS011;4268;52.506;13.462;2023-11-21T13:15:54;4.50;;;4.10;;
8462;SDS011;4268;52.506;13.462;2023-11-21T13:18:22;4.40;;;4.10;;
8462;SDS011;4268;52.506;13.462;2023-11-21T13:20:49;4.77;;;4.37;;
8462;SDS011;4268;52.506;13.462;2023-11-21T13:23:15;6.43;;;4.73;;
8462;SDS011;4268;52.506;13.462;2023-11-21T13:25:41;4.87;;;4.43;;
8462;SDS011;4268;52.506;13.462;2023-11-21T13:28:10;5.73;;;5.33;;
8462;SDS011;4268;52.506;13.462;2023-11-21T13:30:36;4.60;;;4.20;;
8462;SDS011;4268;52.506;13.462;2023-11-21T13:33:05;5.40;;;4.93;;
8462;SDS011;4268;52.506;13.462;2023-11-21T13:35:33;5.63;;;5.23;;
8462;SDS011;4268;52.506;13.462;2023-11-21T13:38:05;5.40;;;5.00;;
8462;SDS011;4268;52.506;13.462;2023-11-21T13:40:32;5.90;;;5.40;;
8462;SDS011;4268;52.506;13.462;2023-11-21T13:43:04;5.80;;;5.30;;
8462;SDS011;4268;52.506;13.462;2023-11-21T13:45:30;5.90;;;5.40;;
8462;SDS011;4268;52.506;13.462;2023-11-21T13:47:56;6.20;;;5.70;;
8462;SDS011;4268;52.506;13.462;2023-11-21T13:50:26;6.80;;;6.20;;
8462;SDS011;4268;52.506;13.462;2023-11-21T13:52:57;6.30;;;5.80;;
8462;SDS011;4268;52.506;13.462;2023-11-21T13:55:29;6.47;;;5.90;;
8462;SDS011;4268;52.506;13.462;2023-11-21T13:57:54;5.97;;;5.47;;
8462;SDS011;4268;52.506;13.462;2023-11-21T14:00:20;6.63;;;6.13;;
8462;SDS011;4268;52.506;13.462;2023-11-21T14:03:04;6.40;;;5.80;;
8462;SDS011;4268;52.506;13.462;2023-11-21T14:05:34;6.77;;;6.17;;
8462;SDS011;4268;52.506;13.462;2023-11-21T14:07:59;6.70;;;6.10;;
8462;SDS011;4268;52.506;13.462;2023-11-21T14:10:32;7.33;;;6.73;;
8462;SDS011;4268;52.506;13.462;2023-11-21T14:13:07;7.80;;;7.10;;
8462;SDS011;4268;52.506;13.462;2023-11-21T14:15:35;8.20;;;7.50;;
8462;SDS011;4268;52.506;13.462;2023-11-21T14:18:06;8.17;;;7.43;;
8462;SDS011;4268;52.506;13.462;2023-11-21T14:20:35;8.93;;;8.17;;
8462;SDS011;4268;52.506;13.462;2023-11-21T14:23:02;9.53;;;8.63;;
8462;SDS011;4268;52.506;13.462;2023-11-21T14:25:29;10.13;;;9.23;;
8462;SDS011;4268;52.506;13.462;2023-11-21T14:27:55;10.50;;;9.50;;
8462;SDS011;4268;52.506;13.462;2023-11-21T14:30:21;12.20;;;11.10;;
8462;SDS011;4268;52.506;13.462;2023-11-21T14:32:47;11.33;;;10.33;;
8462;SDS011;4268;52.506;13.462;2023-11-21T14:35:14;11.97;;;10.80;;
8462;SDS011;4268;52.506;13.462;2023-11-21T14:37:41;12.27;;;11.07;;
8462;SDS011;4268;52.506;13.462;2023-11-21T14:40:06;13.53;;;12.23;;
8462;SDS011;4268;52.506;13.462;2023-11-21T14:42:33;13.80;;;12.50;;
8462;SDS011;4268;52.506;13.462;2023-11-21T14:44:59;14.43;;;13.03;;
8462;SDS011;4268;52.506;13.462;2023-11-21T14:47:28;15.90;;;14.20;;
8462;SDS011;4268;52.506;13.462;2023-11-21T14:49:54;14.57;;;13.17;;
8462;SDS011;4268;52.506;13.462;2023-11-21T14:52:21;14.75;;;13.35;;
8462;SDS011;4268;52.506;13.462;2023-11-21T14:55:00;15.73;;;14.20;;
8462;SDS011;4268;52.506;13.462;2023-11-21T14:57:45;15.13;;;13.63;;
8462;SDS011;4268;52.506;13.462;2023-11-21T15:00:17;16.03;;;14.53;;
8462;SDS011;4268;52.506;13.462;2023-11-21T15:02:58;15.63;;;14.13;;
8462;SDS011;4268;52.506;13.462;2023-11-21T15:05:24;16.33;;;14.70;;